sensor_id;sensor_type;location;lat;lon;timestamp;noise_LAeq;noise_LA_min;noise_LA_max;noise_LA01;noise_LA95
67308;Laerm;57662;51.436;5.978;2022-08-21T00:00:00;33.71;32.38;34.96;;
67308;Laerm;57662;51.436;5.978;2022-08-21T00:00:12;40.75;32.51;52.49;;
67308;Laerm;57662;51.436;5.978;2022-08-21T00:00:24;33.82;32.55;35.23;;
67308;Laerm;57662;51.436;5.978;2022-08-21T00:00:35;33.94;32.43;35.52;;
67308;Laerm;57662;51.436;5.978;2022-08-21T00:00:47;33.69;32.34;35.12;;
67308;Laerm;57662;51.436;5.978;2022-08-21T00:00:58;34.14;32.51;36.17;;
67308;Laerm;57662;51.436;5.978;2022-08-21T00:01:11;34.00;32.35;35.85;;
67308;Laerm;57662;51.436;5.978;2022-08-21T00:01:22;33.85;32.53;35.57;;
67308;Laerm;57662;51.436;5.978;2022-08-21T00:01:34;33.91;32.58;35.19;;
67308;Laerm;57662;51.436;5.978;2022-08-21T00:01:44;33.88;31.98;35.08;;
67308;Laerm;57662;51.436;5.978;2022-08-21T00:01:55;33.81;32.20;35.38;;
67308;Laerm;57662;51.436;5.978;2022-08-21T00:02:13;33.85;32.61;35.22;;
67308;Laerm;57662;51.436;5.978;2022-08-21T00:02:25;33.64;32.10;37.50;;
67308;Laerm;57662;51.436;5.978;2022-08-21T00:02:36;33.56;32.13;34.98;;
67308;Laerm;57662;51.436;5.978;2022-08-21T00:02:48;33.63;32.40;35.11;;
67308;Laerm;57662;51.436;5.978;2022-08-21T00:03:00;34.63;32.41;37.92;;
67308;Laerm;57662;51.436;5.978;2022-08-21T00:03:11;37.98;33.69;43.63;;
67308;Laerm;57662;51.436;5.978;2022-08-21T00:03:22;34.54;32.95;37.71;;
67308;Laerm;57662;51.436;5.978;2022-08-21T00:03:33;34.33;32.85;35.82;;
67308;Laerm;57662;51.436;5.978;2022-08-21T00:03:43;35.40;32.98;40.95;;
67308;Laerm;57662;51.436;5.978;2022-08-21T00:03:54;33.79;32.51;35.25;;
67308;Laerm;57662;51.436;5.978;2022-08-21T00:04:05;33.31;32.10;34.95;;
67308;Laerm;57662;51.436;5.978;2022-08-21T00:04:16;33.36;31.99;35.30;;
67308;Laerm;57662;51.436;5.978;2022-08-21T00:04:26;33.36;32.18;34.82;;
67308;Laerm;57662;51.436;5.978;2022-08-21T00:04:37;33.34;32.06;34.99;;
67308;Laerm;57662;51.436;5.978;2022-08-21T00:04:47;33.54;32.36;34.95;;
67308;Laerm;57662;51.436;5.978;2022-08-21T00:04:57;33.41;31.98;34.66;;
67308;Laerm;57662;51.436;5.978;2022-08-21T00:05:08;33.28;32.12;34.43;;
67308;Laerm;57662;51.436;5.978;2022-08-21T00:05:18;33.47;32.25;40.59;;
67308;Laerm;57662;51.436;5.978;2022-08-21T00:05:29;33.38;32.28;34.76;;
67308;Laerm;57662;51.436;5.978;2022-08-21T00:05:46;33.59;32.33;34.61;;
67308;Laerm;57662;51.436;5.978;2022-08-21T00:05:56;35.81;33.03;40.40;;
67308;Laerm;57662;51.436;5.978;2022-08-21T00:06:07;34.92;33.05;38.70;;
67308;Laerm;57662;51.436;5.978;2022-08-21T00:06:17;33.83;32.58;35.42;;
67308;Laerm;57662;51.436;5.978;2022-08-21T00:06:28;33.61;32.27;35.06;;
67308;Laerm;57662;51.436;5.978;2022-08-21T00:06:38;34.51;32.62;38.21;;
67308;Laerm;57662;51.436;5.978;2022-08-21T00:06:49;34.20;32.82;36.02;;
67308;Laerm;57662;51.436;5.978;2022-08-21T00:07:00;33.63;32.06;35.63;;
67308;Laerm;57662;51.436;5.978;2022-08-21T00:07:10;33.49;32.08;34.96;;
67308;Laerm;57662;51.436;5.978;2022-08-21T00:07:21;33.76;32.61;35.16;;
67308;Laerm;57662;51.436;5.978;2022-08-21T00:07:31;33.49;32.16;34.73;;
67308;Laerm;57662;51.436;5.978;2022-08-21T00:07:42;33.52;32.41;34.89;;
67308;Laerm;57662;51.436;5.978;2022-08-21T00:07:53;33.74;32.24;35.26;;
67308;Laerm;57662;51.436;5.978;2022-08-21T00:08:03;33.71;32.56;35.06;;
67308;Laerm;57662;51.436;5.978;2022-08-21T00:08:14;33.58;32.23;34.95;;
67308;Laerm;57662;51.436;5.978;2022-08-21T00:08:25;33.73;32.27;34.94;;
67308;Laerm;57662;51.436;5.978;2022-08-21T00:08:35;33.50;32.28;34.86;;
67308;Laerm;57662;51.436;5.978;2022-08-21T00:08:45;33.57;32.38;35.25;;
67308;Laerm;57662;51.436;5.978;2022-08-21T00:08:55;33.96;32.68;35.80;;
67308;Laerm;57662;51.436;5.978;2022-08-21T00:09:06;34.27;32.14;36.19;;
67308;Laerm;57662;51.436;5.978;2022-08-21T00:09:18;39.74;34.60;43.82;;
67308;Laerm;57662;51.436;5.978;2022-08-21T00:09:28;36.52;33.35;40.10;;
67308;Laerm;57662;51.436;5.978;2022-08-21T00:09:39;34.54;32.98;36.74;;
67308;Laerm;57662;51.436;5.978;2022-08-21T00:09:49;34.92;33.05;40.61;;
67308;Laerm;57662;51.436;5.978;2022-08-21T00:09:59;36.12;33.08;40.46;;
67308;Laerm;57662;51.436;5.978;2022-08-21T00:10:10;34.34;32.50;36.23;;
67308;Laerm;57662;51.436;5.978;2022-08-21T00:10:21;34.04;32.52;35.82;;
67308;Laerm;57662;51.436;5.978;2022-08-21T00:10:31;34.33;32.69;39.78;;
67308;Laerm;57662;51.436;5.978;2022-08-21T00:10:42;37.40;33.73;42.43;;
67308;Laerm;57662;51.436;5.978;2022-08-21T00:10:53;41.74;33.94;46.96;;
67308;Laerm;57662;51.436;5.978;2022-08-21T00:11:03;34.86;32.67;37.29;;
67308;Laerm;57662;51.436;5.978;2022-08-21T00:11:14;34.18;32.65;35.64;;
67308;Laerm;57662;51.436;5.978;2022-08-21T00:11:24;35.75;33.71;39.29;;
67308;Laerm;57662;51.436;5.978;2022-08-21T00:11:37;35.96;34.03;38.02;;
67308;Laerm;57662;51.436;5.978;2022-08-21T00:11:47;34.44;32.82;36.13;;
67308;Laerm;57662;51.436;5.978;2022-08-21T00:11:58;35.23;33.33;40.04;;
67308;Laerm;57662;51.436;5.978;2022-08-21T00:12:08;39.30;34.38;45.20;;
67308;Laerm;57662;51.436;5.978;2022-08-21T00:12:19;47.73;39.78;52.09;;
67308;Laerm;57662;51.436;5.978;2022-08-21T00:12:30;47.29;42.61;53.20;;
67308;Laerm;57662;51.436;5.978;2022-08-21T00:12:41;45.38;36.64;51.53;;
67308;Laerm;57662;51.436;5.978;2022-08-21T00:12:52;40.24;33.35;45.49;;
67308;Laerm;57662;51.436;5.978;2022-08-21T00:13:03;35.52;33.15;38.97;;
67308;Laerm;57662;51.436;5.978;2022-08-21T00:13:14;38.58;33.22;44.70;;
67308;Laerm;57662;51.436;5.978;2022-08-21T00:13:25;45.02;38.70;52.01;;
67308;Laerm;57662;51.436;5.978;2022-08-21T00:13:35;49.44;40.57;56.92;;
67308;Laerm;57662;51.436;5.978;2022-08-21T00:13:46;39.72;34.37;45.51;;
67308;Laerm;57662;51.436;5.978;2022-08-21T00:13:56;35.91;34.65;37.25;;
67308;Laerm;57662;51.436;5.978;2022-08-21T00:14:07;35.73;34.17;37.72;;
67308;Laerm;57662;51.436;5.978;2022-08-21T00:14:18;35.58;33.25;37.38;;
67308;Laerm;57662;51.436;5.978;2022-08-21T00:14:28;34.57;33.25;35.84;;
67308;Laerm;57662;51.436;5.978;2022-08-21T00:14:39;34.05;32.73;35.85;;
67308;Laerm;57662;51.436;5.978;2022-08-21T00:14:49;33.73;32.61;34.88;;
67308;Laerm;57662;51.436;5.978;2022-08-21T00:14:59;33.80;32.08;34.90;;
67308;Laerm;57662;51.436;5.978;2022-08-21T00:15:10;33.90;32.20;40.40;;
67308;Laerm;57662;51.436;5.978;2022-08-21T00:15:22;33.88;32.32;35.16;;
67308;Laerm;57662;51.436;5.978;2022-08-21T00:15:34;33.95;32.25;35.42;;
67308;Laerm;57662;51.436;5.978;2022-08-21T00:15:45;33.60;32.28;35.30;;
67308;Laerm;57662;51.436;5.978;2022-08-21T00:15:56;33.50;31.92;35.06;;
67308;Laerm;57662;51.436;5.978;2022-08-21T00:16:06;33.48;31.97;34.84;;
67308;Laerm;57662;51.436;5.978;2022-08-21T00:16:16;33.68;32.18;36.21;;
67308;Laerm;57662;51.436;5.978;2022-08-21T00:16:27;33.32;32.01;34.93;;
67308;Laerm;57662;51.436;5.978;2022-08-21T00:16:37;33.26;32.10;34.79;;
67308;Laerm;57662;51.436;5.978;2022-08-21T00:16:48;33.40;32.06;34.60;;
67308;Laerm;57662;51.436;5.978;2022-08-21T00:16:59;33.49;32.28;34.62;;
67308;Laerm;57662;51.436;5.978;2022-08-21T00:17:09;33.50;32.14;34.68;;
67308;Laerm;57662;51.436;5.978;2022-08-21T00:17:19;33.52;32.38;34.77;;
67308;Laerm;57662;51.436;5.978;2022-08-21T00:17:30;33.58;32.45;39.10;;
67308;Laerm;57662;51.436;5.978;2022-08-21T00:17:40;33.37;32.24;34.77;;
67308;Laerm;57662;51.436;5.978;2022-08-21T00:17:50;33.26;32.12;34.43;;
67308;Laerm;57662;51.436;5.978;2022-08-21T00:18:01;33.33;32.15;34.55;;
67308;Laerm;57662;51.436;5.978;2022-08-21T00:18:11;33.64;32.63;34.81;;
67308;Laerm;57662;51.436;5.978;2022-08-21T00:18:22;33.61;32.00;35.22;;
67308;Laerm;57662;51.436;5.978;2022-08-21T00:18:32;33.54;32.43;34.84;;
67308;Laerm;57662;51.436;5.978;2022-08-21T00:18:43;33.46;32.31;34.70;;
67308;Laerm;57662;51.436;5.978;2022-08-21T00:18:53;33.88;32.35;41.55;;
67308;Laerm;57662;51.436;5.978;2022-08-21T00:19:04;33.43;32.24;35.44;;
67308;Laerm;57662;51.436;5.978;2022-08-21T00:19:14;33.54;32.17;34.76;;
67308;Laerm;57662;51.436;5.978;2022-08-21T00:19:24;33.55;32.19;34.70;;
67308;Laerm;57662;51.436;5.978;2022-08-21T00:19:35;33.57;31.99;34.98;;
67308;Laerm;57662;51.436;5.978;2022-08-21T00:19:45;33.47;32.15;34.76;;
67308;Laerm;57662;51.436;5.978;2022-08-21T00:19:56;33.60;32.09;34.75;;
67308;Laerm;57662;51.436;5.978;2022-08-21T00:20:07;33.72;32.48;36.26;;
67308;Laerm;57662;51.436;5.978;2022-08-21T00:20:19;33.68;32.37;34.73;;
67308;Laerm;57662;51.436;5.978;2022-08-21T00:20:29;33.73;32.55;34.94;;
67308;Laerm;57662;51.436;5.978;2022-08-21T00:20:40;33.69;32.36;35.03;;
67308;Laerm;57662;51.436;5.978;2022-08-21T00:20:50;33.63;32.53;34.84;;
67308;Laerm;57662;51.436;5.978;2022-08-21T00:21:01;33.81;32.54;35.38;;
67308;Laerm;57662;51.436;5.978;2022-08-21T00:21:12;34.38;32.98;36.57;;
67308;Laerm;57662;51.436;5.978;2022-08-21T00:21:22;38.07;34.45;43.30;;
67308;Laerm;57662;51.436;5.978;2022-08-21T00:21:34;37.31;34.06;41.76;;
67308;Laerm;57662;51.436;5.978;2022-08-21T00:21:45;35.26;32.94;37.83;;
67308;Laerm;57662;51.436;5.978;2022-08-21T00:21:55;36.09;33.22;42.24;;
67308;Laerm;57662;51.436;5.978;2022-08-21T00:22:05;35.34;32.52;40.08;;
67308;Laerm;57662;51.436;5.978;2022-08-21T00:22:15;33.78;32.39;35.33;;
67308;Laerm;57662;51.436;5.978;2022-08-21T00:22:26;33.55;31.90;34.87;;
67308;Laerm;57662;51.436;5.978;2022-08-21T00:22:36;33.64;32.52;34.75;;
67308;Laerm;57662;51.436;5.978;2022-08-21T00:22:46;33.73;31.59;34.81;;
67308;Laerm;57662;51.436;5.978;2022-08-21T00:22:56;33.90;32.35;35.22;;
67308;Laerm;57662;51.436;5.978;2022-08-21T00:23:07;33.62;32.49;34.84;;
67308;Laerm;57662;51.436;5.978;2022-08-21T00:23:17;33.83;32.75;35.23;;
67308;Laerm;57662;51.436;5.978;2022-08-21T00:23:27;33.65;32.40;35.18;;
67308;Laerm;57662;51.436;5.978;2022-08-21T00:23:38;33.69;32.36;35.95;;
67308;Laerm;57662;51.436;5.978;2022-08-21T00:23:48;33.60;32.27;34.98;;
67308;Laerm;57662;51.436;5.978;2022-08-21T00:23:58;33.46;32.13;34.40;;
67308;Laerm;57662;51.436;5.978;2022-08-21T00:24:08;33.61;32.39;35.20;;
67308;Laerm;57662;51.436;5.978;2022-08-21T00:24:19;33.81;31.95;35.32;;
67308;Laerm;57662;51.436;5.978;2022-08-21T00:24:30;33.90;32.61;35.37;;
67308;Laerm;57662;51.436;5.978;2022-08-21T00:24:40;33.98;32.74;35.32;;
67308;Laerm;57662;51.436;5.978;2022-08-21T00:24:50;33.74;32.43;35.48;;
67308;Laerm;57662;51.436;5.978;2022-08-21T00:25:02;33.69;32.23;34.90;;
67308;Laerm;57662;51.436;5.978;2022-08-21T00:25:13;33.73;32.32;35.02;;
67308;Laerm;57662;51.436;5.978;2022-08-21T00:25:23;33.80;32.26;39.72;;
67308;Laerm;57662;51.436;5.978;2022-08-21T00:25:34;33.72;32.23;35.13;;
67308;Laerm;57662;51.436;5.978;2022-08-21T00:25:44;33.73;32.23;35.06;;
67308;Laerm;57662;51.436;5.978;2022-08-21T00:25:55;33.62;32.27;35.05;;
67308;Laerm;57662;51.436;5.978;2022-08-21T00:26:05;33.68;32.31;35.14;;
67308;Laerm;57662;51.436;5.978;2022-08-21T00:26:15;33.77;32.53;34.82;;
67308;Laerm;57662;51.436;5.978;2022-08-21T00:26:25;33.76;32.29;35.22;;
67308;Laerm;57662;51.436;5.978;2022-08-21T00:26:36;34.57;33.17;37.39;;
67308;Laerm;57662;51.436;5.978;2022-08-21T00:26:46;36.74;33.52;43.42;;
67308;Laerm;57662;51.436;5.978;2022-08-21T00:26:57;34.74;32.63;37.69;;
67308;Laerm;57662;51.436;5.978;2022-08-21T00:27:07;36.14;33.83;39.80;;
67308;Laerm;57662;51.436;5.978;2022-08-21T00:27:17;35.12;33.04;36.78;;
67308;Laerm;57662;51.436;5.978;2022-08-21T00:27:28;34.23;32.61;35.57;;
67308;Laerm;57662;51.436;5.978;2022-08-21T00:27:38;33.90;32.09;35.02;;
67308;Laerm;57662;51.436;5.978;2022-08-21T00:27:48;33.55;32.24;34.75;;
67308;Laerm;57662;51.436;5.978;2022-08-21T00:27:59;33.71;32.06;40.80;;
67308;Laerm;57662;51.436;5.978;2022-08-21T00:28:09;33.57;32.28;34.97;;
67308;Laerm;57662;51.436;5.978;2022-08-21T00:28:20;33.53;32.16;34.92;;
67308;Laerm;57662;51.436;5.978;2022-08-21T00:28:30;33.47;32.23;35.81;;
67308;Laerm;57662;51.436;5.978;2022-08-21T00:28:40;33.77;32.38;36.86;;
67308;Laerm;57662;51.436;5.978;2022-08-21T00:28:51;33.83;32.35;35.44;;
67308;Laerm;57662;51.436;5.978;2022-08-21T00:29:01;33.77;32.39;34.91;;
67308;Laerm;57662;51.436;5.978;2022-08-21T00:29:11;33.93;32.34;35.39;;
67308;Laerm;57662;51.436;5.978;2022-08-21T00:29:21;34.19;32.32;35.34;;
67308;Laerm;57662;51.436;5.978;2022-08-21T00:29:32;34.10;32.77;35.62;;
67308;Laerm;57662;51.436;5.978;2022-08-21T00:29:42;34.36;32.77;37.88;;
67308;Laerm;57662;51.436;5.978;2022-08-21T00:29:52;33.88;32.45;35.22;;
67308;Laerm;57662;51.436;5.978;2022-08-21T00:30:04;33.74;32.68;35.98;;
67308;Laerm;57662;51.436;5.978;2022-08-21T00:30:16;33.79;32.59;38.95;;
67308;Laerm;57662;51.436;5.978;2022-08-21T00:30:26;33.76;32.47;35.61;;
67308;Laerm;57662;51.436;5.978;2022-08-21T00:30:37;33.52;32.17;34.58;;
67308;Laerm;57662;51.436;5.978;2022-08-21T00:30:48;33.64;31.82;34.79;;
67308;Laerm;57662;51.436;5.978;2022-08-21T00:30:59;33.94;32.39;36.25;;
67308;Laerm;57662;51.436;5.978;2022-08-21T00:31:09;38.13;32.63;49.99;;
67308;Laerm;57662;51.436;5.978;2022-08-21T00:31:19;33.74;32.60;34.93;;
67308;Laerm;57662;51.436;5.978;2022-08-21T00:31:30;33.88;32.54;35.46;;
67308;Laerm;57662;51.436;5.978;2022-08-21T00:31:41;33.73;32.62;36.63;;
67308;Laerm;57662;51.436;5.978;2022-08-21T00:31:51;33.47;32.30;35.02;;
67308;Laerm;57662;51.436;5.978;2022-08-21T00:32:02;33.51;32.01;35.46;;
67308;Laerm;57662;51.436;5.978;2022-08-21T00:32:12;33.66;32.26;35.02;;
67308;Laerm;57662;51.436;5.978;2022-08-21T00:32:23;34.15;32.55;36.56;;
67308;Laerm;57662;51.436;5.978;2022-08-21T00:32:33;41.75;35.09;47.73;;
67308;Laerm;57662;51.436;5.978;2022-08-21T00:32:46;40.87;36.31;44.38;;
67308;Laerm;57662;51.436;5.978;2022-08-21T00:32:57;35.44;33.30;38.27;;
67308;Laerm;57662;51.436;5.978;2022-08-21T00:33:08;35.20;33.57;36.79;;
67308;Laerm;57662;51.436;5.978;2022-08-21T00:33:18;34.50;32.90;36.24;;
67308;Laerm;57662;51.436;5.978;2022-08-21T00:33:29;34.05;32.77;35.12;;
67308;Laerm;57662;51.436;5.978;2022-08-21T00:33:39;34.08;32.63;35.59;;
67308;Laerm;57662;51.436;5.978;2022-08-21T00:33:50;33.88;32.66;35.09;;
67308;Laerm;57662;51.436;5.978;2022-08-21T00:34:00;33.88;32.51;35.34;;
67308;Laerm;57662;51.436;5.978;2022-08-21T00:34:11;33.83;31.96;35.29;;
67308;Laerm;57662;51.436;5.978;2022-08-21T00:34:22;33.81;32.20;35.41;;
67308;Laerm;57662;51.436;5.978;2022-08-21T00:34:32;33.97;32.63;37.90;;
67308;Laerm;57662;51.436;5.978;2022-08-21T00:34:42;33.92;32.56;35.20;;
67308;Laerm;57662;51.436;5.978;2022-08-21T00:34:53;34.01;32.55;35.20;;
67308;Laerm;57662;51.436;5.978;2022-08-21T00:35:04;33.78;32.61;35.20;;
67308;Laerm;57662;51.436;5.978;2022-08-21T00:35:16;33.74;32.25;35.23;;
67308;Laerm;57662;51.436;5.978;2022-08-21T00:35:28;33.65;32.02;34.90;;
67308;Laerm;57662;51.436;5.978;2022-08-21T00:35:39;33.62;32.21;35.01;;
67308;Laerm;57662;51.436;5.978;2022-08-21T00:35:50;33.69;32.21;35.40;;
67308;Laerm;57662;51.436;5.978;2022-08-21T00:36:02;33.29;31.96;34.60;;
67308;Laerm;57662;51.436;5.978;2022-08-21T00:36:13;33.57;32.31;35.10;;
67308;Laerm;57662;51.436;5.978;2022-08-21T00:36:23;33.75;32.43;41.67;;
67308;Laerm;57662;51.436;5.978;2022-08-21T00:36:34;33.82;32.53;35.21;;
67308;Laerm;57662;51.436;5.978;2022-08-21T00:36:44;33.74;32.18;34.96;;
67308;Laerm;57662;51.436;5.978;2022-08-21T00:36:54;33.78;32.23;35.01;;
67308;Laerm;57662;51.436;5.978;2022-08-21T00:37:05;34.04;32.55;37.52;;
67308;Laerm;57662;51.436;5.978;2022-08-21T00:37:15;33.86;32.44;35.23;;
67308;Laerm;57662;51.436;5.978;2022-08-21T00:37:25;33.92;32.44;40.93;;
67308;Laerm;57662;51.436;5.978;2022-08-21T00:37:35;33.71;32.04;34.69;;
67308;Laerm;57662;51.436;5.978;2022-08-21T00:37:46;33.82;32.68;35.29;;
67308;Laerm;57662;51.436;5.978;2022-08-21T00:37:56;33.95;32.58;35.62;;
67308;Laerm;57662;51.436;5.978;2022-08-21T00:38:07;34.49;33.25;35.63;;
67308;Laerm;57662;51.436;5.978;2022-08-21T00:38:18;35.97;33.45;37.81;;
67308;Laerm;57662;51.436;5.978;2022-08-21T00:38:28;37.05;34.87;40.06;;
67308;Laerm;57662;51.436;5.978;2022-08-21T00:38:39;44.69;36.27;51.46;;
67308;Laerm;57662;51.436;5.978;2022-08-21T00:38:49;43.92;34.74;49.99;;
67308;Laerm;57662;51.436;5.978;2022-08-21T00:38:59;35.06;33.14;36.92;;
67308;Laerm;57662;51.436;5.978;2022-08-21T00:39:10;34.51;33.14;35.85;;
67308;Laerm;57662;51.436;5.978;2022-08-21T00:39:20;34.05;32.75;35.21;;
67308;Laerm;57662;51.436;5.978;2022-08-21T00:39:30;33.78;32.27;34.90;;
67308;Laerm;57662;51.436;5.978;2022-08-21T00:39:40;33.90;32.56;35.10;;
67308;Laerm;57662;51.436;5.978;2022-08-21T00:39:51;33.76;32.53;34.97;;
67308;Laerm;57662;51.436;5.978;2022-08-21T00:40:01;33.68;32.48;35.31;;
67308;Laerm;57662;51.436;5.978;2022-08-21T00:40:13;33.79;32.52;35.37;;
67308;Laerm;57662;51.436;5.978;2022-08-21T00:40:25;33.80;32.66;35.22;;
67308;Laerm;57662;51.436;5.978;2022-08-21T00:40:42;33.75;32.38;35.03;;
67308;Laerm;57662;51.436;5.978;2022-08-21T00:40:54;33.53;32.31;34.99;;
67308;Laerm;57662;51.436;5.978;2022-08-21T00:41:06;33.67;32.27;36.54;;
67308;Laerm;57662;51.436;5.978;2022-08-21T00:41:17;33.57;32.15;35.13;;
67308;Laerm;57662;51.436;5.978;2022-08-21T00:41:27;33.70;32.25;34.92;;
67308;Laerm;57662;51.436;5.978;2022-08-21T00:41:38;33.43;32.32;34.74;;
67308;Laerm;57662;51.436;5.978;2022-08-21T00:41:49;33.61;32.44;34.95;;
67308;Laerm;57662;51.436;5.978;2022-08-21T00:41:59;33.85;32.55;36.17;;
67308;Laerm;57662;51.436;5.978;2022-08-21T00:42:10;34.29;32.71;40.56;;
67308;Laerm;57662;51.436;5.978;2022-08-21T00:42:25;34.13;32.68;38.74;;
67308;Laerm;57662;51.436;5.978;2022-08-21T00:42:35;33.89;32.25;36.13;;
67308;Laerm;57662;51.436;5.978;2022-08-21T00:42:46;34.07;32.31;38.24;;
67308;Laerm;57662;51.436;5.978;2022-08-21T00:42:56;34.29;32.63;38.10;;
67308;Laerm;57662;51.436;5.978;2022-08-21T00:43:07;34.48;32.93;36.87;;
67308;Laerm;57662;51.436;5.978;2022-08-21T00:43:20;35.62;33.33;38.66;;
67308;Laerm;57662;51.436;5.978;2022-08-21T00:43:32;35.60;33.25;39.58;;
67308;Laerm;57662;51.436;5.978;2022-08-21T00:43:43;35.33;33.51;37.16;;
67308;Laerm;57662;51.436;5.978;2022-08-21T00:43:53;35.90;33.47;38.83;;
67308;Laerm;57662;51.436;5.978;2022-08-21T00:44:05;35.30;33.58;40.77;;
67308;Laerm;57662;51.436;5.978;2022-08-21T00:44:16;35.01;33.19;41.22;;
67308;Laerm;57662;51.436;5.978;2022-08-21T00:44:26;35.70;33.71;40.19;;
67308;Laerm;57662;51.436;5.978;2022-08-21T00:44:36;36.41;34.13;39.07;;
67308;Laerm;57662;51.436;5.978;2022-08-21T00:44:47;35.60;32.97;39.26;;
67308;Laerm;57662;51.436;5.978;2022-08-21T00:44:58;34.69;32.64;37.72;;
67308;Laerm;57662;51.436;5.978;2022-08-21T00:45:09;35.33;33.19;42.18;;
67308;Laerm;57662;51.436;5.978;2022-08-21T00:45:20;34.46;32.85;36.10;;
67308;Laerm;57662;51.436;5.978;2022-08-21T00:45:31;37.03;33.98;39.97;;
67308;Laerm;57662;51.436;5.978;2022-08-21T00:45:42;35.77;33.29;39.07;;
67308;Laerm;57662;51.436;5.978;2022-08-21T00:45:52;34.27;32.85;35.71;;
67308;Laerm;57662;51.436;5.978;2022-08-21T00:46:03;34.21;32.59;36.09;;
67308;Laerm;57662;51.436;5.978;2022-08-21T00:46:14;34.12;32.58;35.54;;
67308;Laerm;57662;51.436;5.978;2022-08-21T00:46:24;34.17;32.68;35.47;;
67308;Laerm;57662;51.436;5.978;2022-08-21T00:46:35;34.32;32.82;35.74;;
67308;Laerm;57662;51.436;5.978;2022-08-21T00:46:45;34.09;32.64;35.35;;
67308;Laerm;57662;51.436;5.978;2022-08-21T00:46:56;34.36;32.99;36.34;;
67308;Laerm;57662;51.436;5.978;2022-08-21T00:47:07;34.27;33.16;35.60;;
67308;Laerm;57662;51.436;5.978;2022-08-21T00:47:18;34.38;32.76;35.78;;
67308;Laerm;57662;51.436;5.978;2022-08-21T00:47:28;34.38;32.87;35.83;;
67308;Laerm;57662;51.436;5.978;2022-08-21T00:47:38;34.19;32.88;35.74;;
67308;Laerm;57662;51.436;5.978;2022-08-21T00:47:49;34.23;32.80;35.57;;
67308;Laerm;57662;51.436;5.978;2022-08-21T00:48:00;34.47;33.15;35.93;;
67308;Laerm;57662;51.436;5.978;2022-08-21T00:48:10;34.29;32.87;36.16;;
67308;Laerm;57662;51.436;5.978;2022-08-21T00:48:21;34.48;33.09;37.22;;
67308;Laerm;57662;51.436;5.978;2022-08-21T00:48:32;34.35;33.07;35.87;;
67308;Laerm;57662;51.436;5.978;2022-08-21T00:48:42;34.40;32.93;36.24;;
67308;Laerm;57662;51.436;5.978;2022-08-21T00:48:52;34.30;32.51;36.43;;
67308;Laerm;57662;51.436;5.978;2022-08-21T00:49:03;34.31;32.87;36.03;;
67308;Laerm;57662;51.436;5.978;2022-08-21T00:49:14;34.34;33.02;35.75;;
67308;Laerm;57662;51.436;5.978;2022-08-21T00:49:24;34.41;32.87;35.97;;
67308;Laerm;57662;51.436;5.978;2022-08-21T00:49:34;34.37;32.91;36.61;;
67308;Laerm;57662;51.436;5.978;2022-08-21T00:49:45;34.12;32.91;35.36;;
67308;Laerm;57662;51.436;5.978;2022-08-21T00:49:55;34.28;32.95;36.32;;
67308;Laerm;57662;51.436;5.978;2022-08-21T00:50:09;34.16;32.45;35.73;;
67308;Laerm;57662;51.436;5.978;2022-08-21T00:50:19;34.34;32.56;36.52;;
67308;Laerm;57662;51.436;5.978;2022-08-21T00:50:31;34.45;32.92;36.67;;
67308;Laerm;57662;51.436;5.978;2022-08-21T00:50:44;34.60;33.08;37.05;;
67308;Laerm;57662;51.436;5.978;2022-08-21T00:50:57;34.39;32.72;38.08;;
67308;Laerm;57662;51.436;5.978;2022-08-21T00:51:10;34.36;32.86;36.32;;
67308;Laerm;57662;51.436;5.978;2022-08-21T00:51:24;34.14;32.85;36.41;;
67308;Laerm;57662;51.436;5.978;2022-08-21T00:51:43;34.11;32.87;35.53;;
67308;Laerm;57662;51.436;5.978;2022-08-21T00:51:57;34.15;32.73;35.60;;
67308;Laerm;57662;51.436;5.978;2022-08-21T00:52:11;34.44;32.43;35.68;;
67308;Laerm;57662;51.436;5.978;2022-08-21T00:52:25;34.76;33.09;36.72;;
67308;Laerm;57662;51.436;5.978;2022-08-21T00:52:37;35.49;33.04;38.89;;
67308;Laerm;57662;51.436;5.978;2022-08-21T00:52:48;35.63;33.36;38.50;;
67308;Laerm;57662;51.436;5.978;2022-08-21T00:52:59;35.86;34.14;38.40;;
67308;Laerm;57662;51.436;5.978;2022-08-21T00:53:11;35.52;33.97;37.63;;
67308;Laerm;57662;51.436;5.978;2022-08-21T00:53:23;35.22;33.79;36.89;;
67308;Laerm;57662;51.436;5.978;2022-08-21T00:53:36;34.75;33.23;36.42;;
67308;Laerm;57662;51.436;5.978;2022-08-21T00:53:47;34.57;33.18;36.60;;
67308;Laerm;57662;51.436;5.978;2022-08-21T00:54:02;34.31;33.03;35.93;;
67308;Laerm;57662;51.436;5.978;2022-08-21T00:54:13;34.41;32.38;37.12;;
67308;Laerm;57662;51.436;5.978;2022-08-21T00:54:25;34.45;32.92;36.93;;
67308;Laerm;57662;51.436;5.978;2022-08-21T00:54:36;34.24;32.82;35.42;;
67308;Laerm;57662;51.436;5.978;2022-08-21T00:54:49;34.07;32.90;35.46;;
67308;Laerm;57662;51.436;5.978;2022-08-21T00:55:00;34.33;32.91;37.34;;
67308;Laerm;57662;51.436;5.978;2022-08-21T00:55:10;34.70;33.26;38.37;;
67308;Laerm;57662;51.436;5.978;2022-08-21T00:55:21;34.36;32.87;35.77;;
67308;Laerm;57662;51.436;5.978;2022-08-21T00:55:33;34.57;33.25;35.79;;
67308;Laerm;57662;51.436;5.978;2022-08-21T00:55:44;34.36;32.74;35.91;;
67308;Laerm;57662;51.436;5.978;2022-08-21T00:55:55;34.14;32.63;35.94;;
67308;Laerm;57662;51.436;5.978;2022-08-21T00:56:07;34.18;32.70;35.52;;
67308;Laerm;57662;51.436;5.978;2022-08-21T00:56:19;34.54;32.75;39.14;;
67308;Laerm;57662;51.436;5.978;2022-08-21T00:56:30;34.75;33.13;38.85;;
67308;Laerm;57662;51.436;5.978;2022-08-21T00:56:40;35.33;32.97;40.39;;
67308;Laerm;57662;51.436;5.978;2022-08-21T00:56:55;35.03;33.22;40.11;;
67308;Laerm;57662;51.436;5.978;2022-08-21T00:57:09;35.51;33.04;46.77;;
67308;Laerm;57662;51.436;5.978;2022-08-21T00:57:26;35.55;33.20;40.85;;
67308;Laerm;57662;51.436;5.978;2022-08-21T00:57:39;35.11;33.23;39.89;;
67308;Laerm;57662;51.436;5.978;2022-08-21T00:57:51;34.82;33.11;38.51;;
67308;Laerm;57662;51.436;5.978;2022-08-21T00:58:02;35.86;33.04;41.51;;
67308;Laerm;57662;51.436;5.978;2022-08-21T00:58:13;41.10;33.25;58.61;;
67308;Laerm;57662;51.436;5.978;2022-08-21T00:58:24;36.95;33.06;46.51;;
67308;Laerm;57662;51.436;5.978;2022-08-21T00:58:36;34.35;33.04;35.74;;
67308;Laerm;57662;51.436;5.978;2022-08-21T00:58:47;34.40;32.99;35.74;;
67308;Laerm;57662;51.436;5.978;2022-08-21T00:58:58;34.19;32.90;35.53;;
67308;Laerm;57662;51.436;5.978;2022-08-21T00:59:10;34.34;32.77;38.33;;
67308;Laerm;57662;51.436;5.978;2022-08-21T00:59:21;34.19;32.90;35.69;;
67308;Laerm;57662;51.436;5.978;2022-08-21T00:59:32;34.34;33.02;38.99;;
67308;Laerm;57662;51.436;5.978;2022-08-21T00:59:45;34.00;32.78;35.39;;
67308;Laerm;57662;51.436;5.978;2022-08-21T00:59:58;34.00;32.62;35.32;;
67308;Laerm;57662;51.436;5.978;2022-08-21T01:00:11;41.23;32.80;53.33;;
67308;Laerm;57662;51.436;5.978;2022-08-21T01:00:26;35.33;32.90;44.16;;
67308;Laerm;57662;51.436;5.978;2022-08-21T01:00:40;33.86;32.44;35.14;;
67308;Laerm;57662;51.436;5.978;2022-08-21T01:00:51;33.93;32.50;36.24;;
67308;Laerm;57662;51.436;5.978;2022-08-21T01:01:02;34.65;32.88;38.15;;
67308;Laerm;57662;51.436;5.978;2022-08-21T01:01:14;34.36;32.66;39.37;;
67308;Laerm;57662;51.436;5.978;2022-08-21T01:01:24;34.44;33.19;37.00;;
67308;Laerm;57662;51.436;5.978;2022-08-21T01:01:35;34.25;33.03;35.37;;